sensor_id;sensor_type;location;lat;lon;timestamp;P1;durP1;ratioP1;P2;durP2;ratioP2
49536;SDS011;74893;30.696;104.058;2024-02-21T00:00:55;5.05;;;1.85;;
49536;SDS011;74893;30.696;104.058;2024-02-21T00:03:23;4.65;;;1.88;;
49536;SDS011;74893;30.696;104.058;2024-02-21T00:05:50;3.58;;;1.65;;
49536;SDS011;74893;30.696;104.058;2024-02-21T00:08:17;5.47;;;1.88;;
49536;SDS011;74893;30.696;104.058;2024-02-21T00:10:44;3.80;;;1.70;;
49536;SDS011;74893;30.696;104.058;2024-02-21T00:13:10;4.03;;;1.77;;
49536;SDS011;74893;30.696;104.058;2024-02-21T00:15:37;3.00;;;1.70;;
49536;SDS011;74893;30.696;104.058;2024-02-21T00:18:04;3.22;;;1.80;;
49536;SDS011;74893;30.696;104.058;2024-02-21T00:20:31;2.97;;;1.80;;
49536;SDS011;74893;30.696;104.058;2024-02-21T00:22:59;3.65;;;1.70;;
49536;SDS011;74893;30.696;104.058;2024-02-21T00:25:26;3.90;;;1.60;;
49536;SDS011;74893;30.696;104.058;2024-02-21T00:27:53;4.07;;;1.92;;
49536;SDS011;74893;30.696;104.058;2024-02-21T00:30:20;3.83;;;1.65;;
49536;SDS011;74893;30.696;104.058;2024-02-21T00:32:47;2.92;;;1.50;;
49536;SDS011;74893;30.696;104.058;2024-02-21T00:35:14;3.50;;;1.40;;
49536;SDS011;74893;30.696;104.058;2024-02-21T00:37:41;3.63;;;1.63;;
49536;SDS011;74893;30.696;104.058;2024-02-21T00:40:08;2.95;;;1.80;;
49536;SDS011;74893;30.696;104.058;2024-02-21T00:42:35;3.35;;;2.22;;
49536;SDS011;74893;30.696;104.058;2024-02-21T00:45:02;3.83;;;1.80;;
49536;SDS011;74893;30.696;104.058;2024-02-21T00:47:29;3.28;;;1.60;;
49536;SDS011;74893;30.696;104.058;2024-02-21T00:49:56;2.90;;;1.55;;
49536;SDS011;74893;30.696;104.058;2024-02-21T00:52:24;3.78;;;2.00;;
49536;SDS011;74893;30.696;104.058;2024-02-21T00:54:51;3.28;;;1.80;;
49536;SDS011;74893;30.696;104.058;2024-02-21T00:57:19;3.53;;;1.80;;
49536;SDS011;74893;30.696;104.058;2024-02-21T00:59:46;3.58;;;1.83;;
49536;SDS011;74893;30.696;104.058;2024-02-21T01:02:13;3.80;;;1.73;;
49536;SDS011;74893;30.696;104.058;2024-02-21T01:04:40;5.15;;;1.90;;
49536;SDS011;74893;30.696;104.058;2024-02-21T01:07:06;4.93;;;1.70;;
49536;SDS011;74893;30.696;104.058;2024-02-21T01:09:33;2.22;;;1.50;;
49536;SDS011;74893;30.696;104.058;2024-02-21T01:12:00;4.30;;;1.70;;
49536;SDS011;74893;30.696;104.058;2024-02-21T01:14:30;2.50;;;1.58;;
49536;SDS011;74893;30.696;104.058;2024-02-21T01:16:57;3.13;;;1.85;;
49536;SDS011;74893;30.696;104.058;2024-02-21T01:19:24;4.18;;;1.70;;
49536;SDS011;74893;30.696;104.058;2024-02-21T01:21:51;3.42;;;1.70;;
49536;SDS011;74893;30.696;104.058;2024-02-21T01:24:18;3.72;;;1.83;;
49536;SDS011;74893;30.696;104.058;2024-02-21T01:26:45;2.45;;;1.63;;
49536;SDS011;74893;30.696;104.058;2024-02-21T01:29:15;2.58;;;1.60;;
49536;SDS011;74893;30.696;104.058;2024-02-21T01:31:42;5.07;;;1.80;;
49536;SDS011;74893;30.696;104.058;2024-02-21T01:34:11;2.95;;;1.60;;
49536;SDS011;74893;30.696;104.058;2024-02-21T01:36:40;3.53;;;1.70;;
49536;SDS011;74893;30.696;104.058;2024-02-21T01:39:07;4.18;;;1.42;;
49536;SDS011;74893;30.696;104.058;2024-02-21T01:41:34;3.60;;;1.90;;
49536;SDS011;74893;30.696;104.058;2024-02-21T01:44:01;2.45;;;1.50;;
49536;SDS011;74893;30.696;104.058;2024-02-21T01:46:31;3.42;;;1.70;;
49536;SDS011;74893;30.696;104.058;2024-02-21T01:49:01;4.25;;;2.00;;
49536;SDS011;74893;30.696;104.058;2024-02-21T01:51:29;3.72;;;1.65;;
49536;SDS011;74893;30.696;104.058;2024-02-21T01:53:57;5.07;;;1.60;;
49536;SDS011;74893;30.696;104.058;2024-02-21T01:56:24;3.58;;;1.52;;
49536;SDS011;74893;30.696;104.058;2024-02-21T01:58:51;3.42;;;1.67;;
49536;SDS011;74893;30.696;104.058;2024-02-21T02:01:18;2.95;;;1.80;;
49536;SDS011;74893;30.696;104.058;2024-02-21T02:03:48;2.65;;;1.88;;
49536;SDS011;74893;30.696;104.058;2024-02-21T02:06:20;3.42;;;1.58;;
49536;SDS011;74893;30.696;104.058;2024-02-21T02:08:48;4.05;;;1.80;;
49536;SDS011;74893;30.696;104.058;2024-02-21T02:11:15;3.60;;;2.05;;
49536;SDS011;74893;30.696;104.058;2024-02-21T02:13:42;5.85;;;2.22;;
49536;SDS011;74893;30.696;104.058;2024-02-21T02:16:12;4.55;;;2.20;;
49536;SDS011;74893;30.696;104.058;2024-02-21T02:18:40;3.47;;;2.33;;
49536;SDS011;74893;30.696;104.058;2024-02-21T02:21:13;3.15;;;1.92;;
49536;SDS011;74893;30.696;104.058;2024-02-21T02:24:10;3.17;;;2.10;;
49536;SDS011;74893;30.696;104.058;2024-02-21T02:26:39;6.25;;;2.05;;
49536;SDS011;74893;30.696;104.058;2024-02-21T02:29:26;3.50;;;1.95;;
49536;SDS011;74893;30.696;104.058;2024-02-21T02:31:53;4.88;;;2.17;;
49536;SDS011;74893;30.696;104.058;2024-02-21T02:34:25;3.78;;;2.05;;
49536;SDS011;74893;30.696;104.058;2024-02-21T02:36:52;3.17;;;1.70;;
49536;SDS011;74893;30.696;104.058;2024-02-21T02:39:20;5.50;;;2.00;;
49536;SDS011;74893;30.696;104.058;2024-02-21T02:41:53;3.15;;;1.70;;
49536;SDS011;74893;30.696;104.058;2024-02-21T02:44:21;5.85;;;2.25;;
49536;SDS011;74893;30.696;104.058;2024-02-21T02:46:49;4.07;;;1.75;;
49536;SDS011;74893;30.696;104.058;2024-02-21T02:49:16;4.15;;;2.28;;
49536;SDS011;74893;30.696;104.058;2024-02-21T02:51:43;3.50;;;1.73;;
49536;SDS011;74893;30.696;104.058;2024-02-21T02:54:10;6.65;;;1.80;;
49536;SDS011;74893;30.696;104.058;2024-02-21T02:56:37;3.53;;;1.75;;
49536;SDS011;74893;30.696;104.058;2024-02-21T02:59:05;3.92;;;1.90;;
49536;SDS011;74893;30.696;104.058;2024-02-21T03:01:35;4.13;;;2.05;;
49536;SDS011;74893;30.696;104.058;2024-02-21T03:04:03;3.08;;;1.95;;
49536;SDS011;74893;30.696;104.058;2024-02-21T03:06:36;3.67;;;1.63;;
49536;SDS011;74893;30.696;104.058;2024-02-21T03:09:07;8.27;;;2.45;;
49536;SDS011;74893;30.696;104.058;2024-02-21T03:11:37;3.95;;;2.38;;
49536;SDS011;74893;30.696;104.058;2024-02-21T03:14:08;6.68;;;2.40;;
49536;SDS011;74893;30.696;104.058;2024-02-21T03:16:35;6.20;;;2.08;;
49536;SDS011;74893;30.696;104.058;2024-02-21T03:19:02;6.43;;;2.05;;
49536;SDS011;74893;30.696;104.058;2024-02-21T03:21:32;5.68;;;2.10;;
49536;SDS011;74893;30.696;104.058;2024-02-21T03:23:59;3.92;;;2.00;;
49536;SDS011;74893;30.696;104.058;2024-02-21T03:26:26;4.32;;;2.28;;
49536;SDS011;74893;30.696;104.058;2024-02-21T03:28:54;5.93;;;2.42;;
49536;SDS011;74893;30.696;104.058;2024-02-21T03:31:21;5.45;;;2.08;;
49536;SDS011;74893;30.696;104.058;2024-02-21T03:33:51;4.47;;;2.30;;
49536;SDS011;74893;30.696;104.058;2024-02-21T03:36:18;4.93;;;2.05;;
49536;SDS011;74893;30.696;104.058;2024-02-21T03:38:45;3.83;;;1.90;;
49536;SDS011;74893;30.696;104.058;2024-02-21T03:41:14;6.20;;;2.22;;
49536;SDS011;74893;30.696;104.058;2024-02-21T03:43:41;4.18;;;2.28;;
49536;SDS011;74893;30.696;104.058;2024-02-21T03:46:11;3.13;;;1.90;;
49536;SDS011;74893;30.696;104.058;2024-02-21T03:48:38;4.85;;;2.30;;
49536;SDS011;74893;30.696;104.058;2024-02-21T03:51:05;5.47;;;2.17;;
49536;SDS011;74893;30.696;104.058;2024-02-21T03:53:35;4.38;;;2.00;;
49536;SDS011;74893;30.696;104.058;2024-02-21T03:56:07;5.85;;;2.30;;
49536;SDS011;74893;30.696;104.058;2024-02-21T03:58:34;3.78;;;2.03;;
49536;SDS011;74893;30.696;104.058;2024-02-21T04:01:01;32.65;;;6.53;;
49536;SDS011;74893;30.696;104.058;2024-02-21T04:03:28;24.35;;;8.57;;
49536;SDS011;74893;30.696;104.058;2024-02-21T04:05:56;298.58;;;157.23;;
49536;SDS011;74893;30.696;104.058;2024-02-21T04:08:23;339.13;;;194.10;;
49536;SDS011;74893;30.696;104.058;2024-02-21T04:10:50;124.13;;;61.85;;
49536;SDS011;74893;30.696;104.058;2024-02-21T04:13:17;74.65;;;39.25;;
49536;SDS011;74893;30.696;104.058;2024-02-21T04:15:44;64.40;;;34.88;;
49536;SDS011;74893;30.696;104.058;2024-02-21T04:18:11;64.20;;;33.83;;
49536;SDS011;74893;30.696;104.058;2024-02-21T04:20:37;57.40;;;31.58;;
49536;SDS011;74893;30.696;104.058;2024-02-21T04:23:07;61.38;;;33.47;;
49536;SDS011;74893;30.696;104.058;2024-02-21T04:25:34;59.58;;;32.03;;
49536;SDS011;74893;30.696;104.058;2024-02-21T04:28:01;57.92;;;30.83;;
49536;SDS011;74893;30.696;104.058;2024-02-21T04:30:28;53.65;;;28.27;;
49536;SDS011;74893;30.696;104.058;2024-02-21T04:32:55;50.05;;;26.95;;
49536;SDS011;74893;30.696;104.058;2024-02-21T04:35:22;43.72;;;25.13;;
49536;SDS011;74893;30.696;104.058;2024-02-21T04:37:49;44.55;;;24.08;;
49536;SDS011;74893;30.696;104.058;2024-02-21T04:40:16;39.47;;;22.30;;
49536;SDS011;74893;30.696;104.058;2024-02-21T04:42:43;38.30;;;20.23;;
49536;SDS011;74893;30.696;104.058;2024-02-21T04:45:10;43.38;;;20.60;;
49536;SDS011;74893;30.696;104.058;2024-02-21T04:47:37;34.78;;;19.65;;
49536;SDS011;74893;30.696;104.058;2024-02-21T04:50:04;38.00;;;18.50;;
49536;SDS011;74893;30.696;104.058;2024-02-21T04:52:31;32.75;;;16.70;;
49536;SDS011;74893;30.696;104.058;2024-02-21T04:54:58;30.40;;;17.10;;
49536;SDS011;74893;30.696;104.058;2024-02-21T04:57:25;29.83;;;16.40;;
49536;SDS011;74893;30.696;104.058;2024-02-21T04:59:51;29.63;;;15.73;;
49536;SDS011;74893;30.696;104.058;2024-02-21T05:02:18;25.95;;;14.00;;
49536;SDS011;74893;30.696;104.058;2024-02-21T05:04:49;24.67;;;13.65;;
49536;SDS011;74893;30.696;104.058;2024-02-21T05:07:19;22.92;;;13.10;;
49536;SDS011;74893;30.696;104.058;2024-02-21T05:09:46;20.10;;;11.98;;
49536;SDS011;74893;30.696;104.058;2024-02-21T05:12:12;19.48;;;12.15;;
49536;SDS011;74893;30.696;104.058;2024-02-21T05:14:39;18.45;;;10.75;;
49536;SDS011;74893;30.696;104.058;2024-02-21T05:17:06;19.05;;;10.77;;
49536;SDS011;74893;30.696;104.058;2024-02-21T05:19:33;18.10;;;10.32;;
49536;SDS011;74893;30.696;104.058;2024-02-21T05:22:00;17.88;;;10.35;;
49536;SDS011;74893;30.696;104.058;2024-02-21T05:24:27;14.48;;;9.10;;
49536;SDS011;74893;30.696;104.058;2024-02-21T05:26:55;15.73;;;8.48;;
49536;SDS011;74893;30.696;104.058;2024-02-21T05:29:22;16.38;;;8.82;;
49536;SDS011;74893;30.696;104.058;2024-02-21T05:34:19;13.50;;;7.78;;
49536;SDS011;74893;30.696;104.058;2024-02-21T05:36:46;16.50;;;7.60;;
49536;SDS011;74893;30.696;104.058;2024-02-21T05:39:15;9.55;;;6.63;;
49536;SDS011;74893;30.696;104.058;2024-02-21T05:41:42;13.52;;;7.43;;
49536;SDS011;74893;30.696;104.058;2024-02-21T05:44:10;11.85;;;6.95;;
49536;SDS011;74893;30.696;104.058;2024-02-21T05:46:37;12.07;;;6.20;;
49536;SDS011;74893;30.696;104.058;2024-02-21T05:49:03;9.55;;;6.03;;
49536;SDS011;74893;30.696;104.058;2024-02-21T05:51:34;10.65;;;6.13;;
49536;SDS011;74893;30.696;104.058;2024-02-21T05:54:01;10.35;;;6.00;;
49536;SDS011;74893;30.696;104.058;2024-02-21T05:56:27;9.00;;;5.22;;
49536;SDS011;74893;30.696;104.058;2024-02-21T05:58:54;8.35;;;5.40;;
49536;SDS011;74893;30.696;104.058;2024-02-21T06:01:22;10.02;;;5.32;;
49536;SDS011;74893;30.696;104.058;2024-02-21T06:03:48;7.88;;;5.22;;
49536;SDS011;74893;30.696;104.058;2024-02-21T06:06:15;11.07;;;5.10;;
49536;SDS011;74893;30.696;104.058;2024-02-21T06:08:43;7.68;;;5.05;;
49536;SDS011;74893;30.696;104.058;2024-02-21T06:11:10;8.02;;;4.38;;
49536;SDS011;74893;30.696;104.058;2024-02-21T06:13:41;7.55;;;4.28;;
49536;SDS011;74893;30.696;104.058;2024-02-21T06:16:07;7.22;;;4.30;;
49536;SDS011;74893;30.696;104.058;2024-02-21T06:18:35;7.45;;;3.90;;
49536;SDS011;74893;30.696;104.058;2024-02-21T06:21:05;7.55;;;4.10;;
49536;SDS011;74893;30.696;104.058;2024-02-21T06:23:31;6.38;;;3.38;;
49536;SDS011;74893;30.696;104.058;2024-02-21T06:25:58;5.25;;;3.13;;
49536;SDS011;74893;30.696;104.058;2024-02-21T06:28:25;6.25;;;3.50;;
49536;SDS011;74893;30.696;104.058;2024-02-21T06:30:52;6.55;;;3.33;;
49536;SDS011;74893;30.696;104.058;2024-02-21T06:33:19;6.55;;;3.58;;
49536;SDS011;74893;30.696;104.058;2024-02-21T06:38:18;5.20;;;3.08;;
49536;SDS011;74893;30.696;104.058;2024-02-21T06:40:45;4.43;;;3.03;;
49536;SDS011;74893;30.696;104.058;2024-02-21T06:43:18;5.25;;;3.28;;
49536;SDS011;74893;30.696;104.058;2024-02-21T06:45:45;6.22;;;2.90;;
49536;SDS011;74893;30.696;104.058;2024-02-21T06:48:19;5.68;;;2.83;;
49536;SDS011;74893;30.696;104.058;2024-02-21T06:50:46;4.80;;;2.70;;
49536;SDS011;74893;30.696;104.058;2024-02-21T06:53:13;5.47;;;2.72;;
49536;SDS011;74893;30.696;104.058;2024-02-21T06:55:40;5.80;;;3.30;;
49536;SDS011;74893;30.696;104.058;2024-02-21T06:58:07;5.25;;;3.08;;
49536;SDS011;74893;30.696;104.058;2024-02-21T07:00:37;9.75;;;3.72;;
49536;SDS011;74893;30.696;104.058;2024-02-21T07:03:05;6.18;;;2.53;;
49536;SDS011;74893;30.696;104.058;2024-02-21T07:05:32;5.70;;;2.63;;
49536;SDS011;74893;30.696;104.058;2024-02-21T07:07:59;5.68;;;3.05;;
49536;SDS011;74893;30.696;104.058;2024-02-21T07:10:26;4.15;;;2.90;;
49536;SDS011;74893;30.696;104.058;2024-02-21T07:12:54;4.85;;;2.53;;
49536;SDS011;74893;30.696;104.058;2024-02-21T07:15:21;5.50;;;2.45;;
49536;SDS011;74893;30.696;104.058;2024-02-21T07:17:52;5.13;;;2.33;;
49536;SDS011;74893;30.696;104.058;2024-02-21T07:20:19;5.88;;;2.70;;
49536;SDS011;74893;30.696;104.058;2024-02-21T07:22:46;3.38;;;2.40;;
49536;SDS011;74893;30.696;104.058;2024-02-21T07:25:13;4.32;;;3.17;;
49536;SDS011;74893;30.696;104.058;2024-02-21T07:27:40;3.88;;;2.22;;
49536;SDS011;74893;30.696;104.058;2024-02-21T07:30:07;3.67;;;2.53;;
49536;SDS011;74893;30.696;104.058;2024-02-21T07:32:34;4.22;;;2.20;;
49536;SDS011;74893;30.696;104.058;2024-02-21T07:35:01;6.50;;;2.78;;
49536;SDS011;74893;30.696;104.058;2024-02-21T07:37:33;4.82;;;2.58;;
49536;SDS011;74893;30.696;104.058;2024-02-21T07:40:01;5.38;;;2.65;;
49536;SDS011;74893;30.696;104.058;2024-02-21T07:42:31;4.50;;;2.42;;
49536;SDS011;74893;30.696;104.058;2024-02-21T07:44:58;6.03;;;2.53;;
49536;SDS011;74893;30.696;104.058;2024-02-21T07:47:25;4.07;;;2.58;;
49536;SDS011;74893;30.696;104.058;2024-02-21T07:49:51;8.30;;;2.30;;
49536;SDS011;74893;30.696;104.058;2024-02-21T07:52:18;4.38;;;2.20;;
49536;SDS011;74893;30.696;104.058;2024-02-21T07:54:46;5.72;;;2.25;;
49536;SDS011;74893;30.696;104.058;2024-02-21T07:57:13;4.85;;;2.50;;
49536;SDS011;74893;30.696;104.058;2024-02-21T07:59:40;4.72;;;2.42;;
49536;SDS011;74893;30.696;104.058;2024-02-21T08:02:07;4.22;;;2.10;;
49536;SDS011;74893;30.696;104.058;2024-02-21T08:04:35;5.15;;;2.50;;
49536;SDS011;74893;30.696;104.058;2024-02-21T08:07:01;4.47;;;2.40;;
49536;SDS011;74893;30.696;104.058;2024-02-21T08:09:31;4.80;;;2.58;;
49536;SDS011;74893;30.696;104.058;2024-02-21T08:11:58;5.63;;;2.22;;
49536;SDS011;74893;30.696;104.058;2024-02-21T08:14:24;5.32;;;1.83;;
49536;SDS011;74893;30.696;104.058;2024-02-21T08:16:51;4.57;;;2.00;;
49536;SDS011;74893;30.696;104.058;2024-02-21T08:19:19;3.85;;;2.15;;
49536;SDS011;74893;30.696;104.058;2024-02-21T08:21:46;4.63;;;2.13;;
49536;SDS011;74893;30.696;104.058;2024-02-21T08:24:13;4.70;;;2.20;;
49536;SDS011;74893;30.696;104.058;2024-02-21T08:26:41;6.82;;;2.67;;
49536;SDS011;74893;30.696;104.058;2024-02-21T08:29:08;4.25;;;2.40;;
49536;SDS011;74893;30.696;104.058;2024-02-21T08:31:35;3.70;;;2.00;;
49536;SDS011;74893;30.696;104.058;2024-02-21T08:34:04;6.22;;;2.40;;
49536;SDS011;74893;30.696;104.058;2024-02-21T08:36:36;4.20;;;2.30;;
49536;SDS011;74893;30.696;104.058;2024-02-21T08:39:03;4.78;;;2.20;;
49536;SDS011;74893;30.696;104.058;2024-02-21T08:41:31;4.93;;;2.30;;
49536;SDS011;74893;30.696;104.058;2024-02-21T08:43:58;4.13;;;2.03;;
49536;SDS011;74893;30.696;104.058;2024-02-21T08:46:25;5.22;;;2.58;;
49536;SDS011;74893;30.696;104.058;2024-02-21T08:48:52;5.97;;;2.22;;
49536;SDS011;74893;30.696;104.058;2024-02-21T08:51:20;5.00;;;2.15;;
49536;SDS011;74893;30.696;104.058;2024-02-21T08:53:47;4.88;;;2.47;;
49536;SDS011;74893;30.696;104.058;2024-02-21T08:56:17;4.40;;;1.92;;
49536;SDS011;74893;30.696;104.058;2024-02-21T08:58:44;4.47;;;2.13;;
49536;SDS011;74893;30.696;104.058;2024-02-21T09:01:13;6.13;;;2.00;;
49536;SDS011;74893;30.696;104.058;2024-02-21T09:03:40;5.80;;;2.30;;
49536;SDS011;74893;30.696;104.058;2024-02-21T09:06:07;5.15;;;1.80;;
49536;SDS011;74893;30.696;104.058;2024-02-21T09:08:35;4.28;;;2.20;;
49536;SDS011;74893;30.696;104.058;2024-02-21T09:11:02;6.00;;;2.00;;
49536;SDS011;74893;30.696;104.058;2024-02-21T09:13:29;6.18;;;2.30;;
49536;SDS011;74893;30.696;104.058;2024-02-21T09:15:56;6.30;;;2.63;;
49536;SDS011;74893;30.696;104.058;2024-02-21T09:18:23;5.57;;;2.40;;
49536;SDS011;74893;30.696;104.058;2024-02-21T09:20:50;9.13;;;2.35;;
49536;SDS011;74893;30.696;104.058;2024-02-21T09:23:17;4.55;;;2.10;;
49536;SDS011;74893;30.696;104.058;2024-02-21T09:25:45;5.78;;;1.90;;
49536;SDS011;74893;30.696;104.058;2024-02-21T09:28:12;6.18;;;2.13;;
49536;SDS011;74893;30.696;104.058;2024-02-21T09:30:39;6.15;;;2.20;;
49536;SDS011;74893;30.696;104.058;2024-02-21T09:33:06;6.55;;;2.28;;
49536;SDS011;74893;30.696;104.058;2024-02-21T09:35:32;5.28;;;2.83;;
49536;SDS011;74893;30.696;104.058;2024-02-21T09:37:59;6.13;;;2.15;;
49536;SDS011;74893;30.696;104.058;2024-02-21T09:40:27;5.70;;;2.22;;
49536;SDS011;74893;30.696;104.058;2024-02-21T09:43:03;10.93;;;2.40;;
49536;SDS011;74893;30.696;104.058;2024-02-21T09:45:32;5.28;;;2.22;;
49536;SDS011;74893;30.696;104.058;2024-02-21T09:50:53;9.05;;;2.30;;
49536;SDS011;74893;30.696;104.058;2024-02-21T09:53:24;10.48;;;2.25;;
49536;SDS011;74893;30.696;104.058;2024-02-21T09:55:51;10.25;;;2.65;;
49536;SDS011;74893;30.696;104.058;2024-02-21T09:58:18;8.20;;;2.15;;
49536;SDS011;74893;30.696;104.058;2024-02-21T10:00:46;6.35;;;2.13;;
49536;SDS011;74893;30.696;104.058;2024-02-21T10:03:13;7.00;;;2.42;;
49536;SDS011;74893;30.696;104.058;2024-02-21T10:05:45;5.05;;;2.30;;
49536;SDS011;74893;30.696;104.058;2024-02-21T10:08:14;6.47;;;2.47;;
49536;SDS011;74893;30.696;104.058;2024-02-21T10:10:44;10.15;;;2.63;;
49536;SDS011;74893;30.696;104.058;2024-02-21T10:13:25;9.75;;;1.90;;
49536;SDS011;74893;30.696;104.058;2024-02-21T10:16:02;8.73;;;2.08;;
49536;SDS011;74893;30.696;104.058;2024-02-21T10:18:33;10.27;;;2.10;;
49536;SDS011;74893;30.696;104.058;2024-02-21T10:21:10;7.38;;;3.00;;
49536;SDS011;74893;30.696;104.058;2024-02-21T10:23:43;7.82;;;2.53;;
49536;SDS011;74893;30.696;104.058;2024-02-21T10:26:14;7.65;;;2.17;;
49536;SDS011;74893;30.696;104.058;2024-02-21T10:28:42;12.23;;;2.13;;
49536;SDS011;74893;30.696;104.058;2024-02-21T10:31:23;9.63;;;2.60;;
49536;SDS011;74893;30.696;104.058;2024-02-21T10:33:58;5.85;;;2.17;;
49536;SDS011;74893;30.696;104.058;2024-02-21T10:36:28;7.93;;;2.50;;
49536;SDS011;74893;30.696;104.058;2024-02-21T10:38:55;8.40;;;2.70;;
49536;SDS011;74893;30.696;104.058;2024-02-21T10:41:22;10.80;;;2.20;;
49536;SDS011;74893;30.696;104.058;2024-02-21T10:43:50;5.40;;;2.58;;
49536;SDS011;74893;30.696;104.058;2024-02-21T10:46:20;10.23;;;2.30;;
49536;SDS011;74893;30.696;104.058;2024-02-21T10:48:48;8.85;;;2.45;;
49536;SDS011;74893;30.696;104.058;2024-02-21T10:51:43;14.20;;;2.85;;
49536;SDS011;74893;30.696;104.058;2024-02-21T10:54:13;9.65;;;2.78;;
49536;SDS011;74893;30.696;104.058;2024-02-21T10:56:58;7.95;;;2.70;;
49536;SDS011;74893;30.696;104.058;2024-02-21T10:59:27;10.32;;;2.60;;
49536;SDS011;74893;30.696;104.058;2024-02-21T11:01:57;8.82;;;2.30;;
49536;SDS011;74893;30.696;104.058;2024-02-21T11:04:25;14.13;;;2.95;;
49536;SDS011;74893;30.696;104.058;2024-02-21T11:06:52;9.10;;;2.58;;
49536;SDS011;74893;30.696;104.058;2024-02-21T11:09:19;6.15;;;2.08;;
49536;SDS011;74893;30.696;104.058;2024-02-21T11:11:57;7.55;;;2.50;;
49536;SDS011;74893;30.696;104.058;2024-02-21T11:14:26;7.30;;;2.42;;
49536;SDS011;74893;30.696;104.058;2024-02-21T11:16:53;4.70;;;1.95;;
49536;SDS011;74893;30.696;104.058;2024-02-21T11:19:27;5.97;;;1.95;;
49536;SDS011;74893;30.696;104.058;2024-02-21T11:21:55;9.40;;;2.92;;
49536;SDS011;74893;30.696;104.058;2024-02-21T11:24:29;5.82;;;2.17;;
49536;SDS011;74893;30.696;104.058;2024-02-21T11:27:07;7.72;;;2.05;;
49536;SDS011;74893;30.696;104.058;2024-02-21T11:29:47;6.63;;;2.15;;
49536;SDS011;74893;30.696;104.058;2024-02-21T11:35:03;10.68;;;2.22;;
49536;SDS011;74893;30.696;104.058;2024-02-21T11:40:02;10.75;;;3.15;;
49536;SDS011;74893;30.696;104.058;2024-02-21T11:45:06;6.60;;;2.50;;
49536;SDS011;74893;30.696;104.058;2024-02-21T11:47:34;8.05;;;2.47;;
49536;SDS011;74893;30.696;104.058;2024-02-21T11:50:04;8.27;;;2.78;;
49536;SDS011;74893;30.696;104.058;2024-02-21T11:52:31;9.32;;;2.45;;
49536;SDS011;74893;30.696;104.058;2024-02-21T11:54:58;7.55;;;2.22;;
49536;SDS011;74893;30.696;104.058;2024-02-21T11:57:30;7.03;;;2.20;;
49536;SDS011;74893;30.696;104.058;2024-02-21T11:59:56;9.68;;;2.58;;
49536;SDS011;74893;30.696;104.058;2024-02-21T12:02:23;5.20;;;2.25;;
49536;SDS011;74893;30.696;104.058;2024-02-21T12:04:50;5.85;;;1.83;;
49536;SDS011;74893;30.696;104.058;2024-02-21T12:07:17;6.50;;;1.70;;
49536;SDS011;74893;30.696;104.058;2024-02-21T12:09:44;11.27;;;2.30;;
49536;SDS011;74893;30.696;104.058;2024-02-21T12:12:11;4.07;;;1.30;;
49536;SDS011;74893;30.696;104.058;2024-02-21T12:14:38;5.93;;;1.80;;
49536;SDS011;74893;30.696;104.058;2024-02-21T12:17:05;2.72;;;1.50;;
49536;SDS011;74893;30.696;104.058;2024-02-21T12:19:32;4.15;;;1.30;;
49536;SDS011;74893;30.696;104.058;2024-02-21T12:22:00;6.72;;;1.92;;
49536;SDS011;74893;30.696;104.058;2024-02-21T12:24:27;5.63;;;1.50;;
49536;SDS011;74893;30.696;104.058;2024-02-21T12:26:55;8.80;;;2.25;;
49536;SDS011;74893;30.696;104.058;2024-02-21T12:29:24;3.90;;;1.55;;
49536;SDS011;74893;30.696;104.058;2024-02-21T12:31:51;6.65;;;2.10;;
49536;SDS011;74893;30.696;104.058;2024-02-21T12:34:20;5.53;;;1.67;;
49536;SDS011;74893;30.696;104.058;2024-02-21T12:36:48;4.63;;;1.38;;
49536;SDS011;74893;30.696;104.058;2024-02-21T12:39:15;5.85;;;1.90;;
49536;SDS011;74893;30.696;104.058;2024-02-21T12:41:42;6.47;;;1.90;;
49536;SDS011;74893;30.696;104.058;2024-02-21T12:44:10;4.13;;;1.73;;
49536;SDS011;74893;30.696;104.058;2024-02-21T12:46:38;3.97;;;1.42;;
49536;SDS011;74893;30.696;104.058;2024-02-21T12:49:05;5.85;;;1.40;;
49536;SDS011;74893;30.696;104.058;2024-02-21T12:51:34;6.43;;;1.88;;
49536;SDS011;74893;30.696;104.058;2024-02-21T12:54:01;5.85;;;1.35;;
49536;SDS011;74893;30.696;104.058;2024-02-21T12:56:28;7.55;;;2.25;;
49536;SDS011;74893;30.696;104.058;2024-02-21T12:58:56;6.45;;;2.20;;
49536;SDS011;74893;30.696;104.058;2024-02-21T13:01:23;6.85;;;1.60;;
49536;SDS011;74893;30.696;104.058;2024-02-21T13:03:51;70.78;;;37.25;;
49536;SDS011;74893;30.696;104.058;2024-02-21T13:06:19;83.53;;;46.58;;
49536;SDS011;74893;30.696;104.058;2024-02-21T13:08:46;62.45;;;33.28;;
49536;SDS011;74893;30.696;104.058;2024-02-21T13:11:14;50.15;;;23.08;;
49536;SDS011;74893;30.696;104.058;2024-02-21T13:13:42;38.10;;;19.10;;
49536;SDS011;74893;30.696;104.058;2024-02-21T13:16:09;36.80;;;18.63;;
49536;SDS011;74893;30.696;104.058;2024-02-21T13:18:41;32.33;;;17.40;;
49536;SDS011;74893;30.696;104.058;2024-02-21T13:21:12;31.05;;;16.95;;
49536;SDS011;74893;30.696;104.058;2024-02-21T13:23:40;36.20;;;18.05;;
49536;SDS011;74893;30.696;104.058;2024-02-21T13:26:09;32.38;;;16.80;;
49536;SDS011;74893;30.696;104.058;2024-02-21T13:28:38;38.05;;;16.83;;
49536;SDS011;74893;30.696;104.058;2024-02-21T13:31:05;27.10;;;15.07;;
49536;SDS011;74893;30.696;104.058;2024-02-21T13:33:31;30.98;;;14.55;;
49536;SDS011;74893;30.696;104.058;2024-02-21T13:35:58;26.45;;;14.63;;
49536;SDS011;74893;30.696;104.058;2024-02-21T13:38:27;24.50;;;12.73;;
49536;SDS011;74893;30.696;104.058;2024-02-21T13:40:56;26.60;;;13.43;;
49536;SDS011;74893;30.696;104.058;2024-02-21T13:43:25;25.90;;;13.43;;
49536;SDS011;74893;30.696;104.058;2024-02-21T13:46:01;25.88;;;11.90;;
49536;SDS011;74893;30.696;104.058;2024-02-21T13:48:30;21.95;;;11.15;;
49536;SDS011;74893;30.696;104.058;2024-02-21T13:50:59;27.50;;;11.57;;
49536;SDS011;74893;30.696;104.058;2024-02-21T13:53:28;18.00;;;10.85;;
49536;SDS011;74893;30.696;104.058;2024-02-21T13:55:54;21.40;;;10.52;;
49536;SDS011;74893;30.696;104.058;2024-02-21T13:58:22;20.60;;;10.90;;
49536;SDS011;74893;30.696;104.058;2024-02-21T14:00:50;18.27;;;10.13;;
49536;SDS011;74893;30.696;104.058;2024-02-21T14:03:19;18.08;;;9.38;;
49536;SDS011;74893;30.696;104.058;2024-02-21T14:05:46;22.88;;;9.45;;
49536;SDS011;74893;30.696;104.058;2024-02-21T14:08:14;19.95;;;9.60;;
49536;SDS011;74893;30.696;104.058;2024-02-21T14:10:41;21.52;;;8.55;;
49536;SDS011;74893;30.696;104.058;2024-02-21T14:13:07;17.60;;;9.00;;
49536;SDS011;74893;30.696;104.058;2024-02-21T14:15:34;18.77;;;8.57;;
49536;SDS011;74893;30.696;104.058;2024-02-21T14:18:08;18.90;;;8.20;;
49536;SDS011;74893;30.696;104.058;2024-02-21T14:20:38;14.00;;;7.45;;
49536;SDS011;74893;30.696;104.058;2024-02-21T14:23:05;13.80;;;7.05;;
49536;SDS011;74893;30.696;104.058;2024-02-21T14:25:32;18.15;;;7.10;;
49536;SDS011;74893;30.696;104.058;2024-02-21T14:27:59;14.23;;;7.10;;
49536;SDS011;74893;30.696;104.058;2024-02-21T14:30:29;18.05;;;6.95;;
49536;SDS011;74893;30.696;104.058;2024-02-21T14:32:55;17.50;;;6.63;;
49536;SDS011;74893;30.696;104.058;2024-02-21T14:35:23;15.43;;;6.75;;
49536;SDS011;74893;30.696;104.058;2024-02-21T14:37:51;16.33;;;6.68;;